Aérodrome :
LOGIN :

S'inscrire | Disclaimer

   EN    FR    IT 

 










Légende :    VFR   VFR Marginal   IFR   IFR Intensif   IFR Très Intensif
Visi : 
Plafond : 
>= 8 km
>= 3000ft
5 à 8 km
1000 à 3000 ft
1500m à 5 km
500 à 1000 ft
800 à 1500m
200 à 500 ft
< 800m
< 200 ft
Symboles :   Orages  Brouillard  Fortes neiges  Fortes précipitations  Vent > 20 kt
SIGMETs :   Divers  Orages  Givrage  Turbulence  Onde Orograph.  Cendres Volcan.







- Altitude de l'aérodrome : 11 ft
- Code IATA : SXL


EISG - Sligo

DERNIER METAR :
  • 291700Z 14016KT 120V180 9999 FEW034 SCT040 BKN055 12/05 Q1001

METARs EXPIRÉS :
  • 291630Z 14017G29KT 120V180 9999 FEW037 SCT046 BKN060 12/05 Q1001
  • 291600Z 15016G27KT 9999 SCT041 BKN055 12/04 Q1001
  • 291530Z 14013G23KT 100V180 9999 FEW038 SCT055 13/05 Q1001
  • 291500Z 14013KT 110V170 9999 SCT038 SCT045 BKN050 13/05 Q1001
  • 291430Z 15017G30KT 110V190 9999 FEW038 SCT045 SCT050 13/05 Q1002

TAF TAF EISG
Valide du 29 à 18h jusqu'au 30 à 03h UTC


291700Z 2918/3003 14017G28KT 9999 SCT020 BKN030
BECMG 2921/2923 11018G30KT
Pas de NOTAMs connus pour ce terrain.



MET'MAP, la Météo Aéronautique d'un coup d'oeil ! - Copyright ORBIFLY Décembre 2007 - Disclaimer

ORBIFLY MET'MAP TEAM :

Programmation & Développement : Alexandra Zaïnal
Conception & Développement : Baudouin d'Aumeries
Co-Programmation & Développement : Marc-Olivier Méhu
Soutien technique & logistique : Manuel Goepfert

Contact : metmap@orbifly.com




SOURCES & CREDITS :

   NOAA